sensor_id;sensor_type;location;lat;lon;timestamp;temperature;humidity
48752;DHT22;34544;48.836;9.174;2022-07-21T00:01:20;20.00;99.90
48752;DHT22;34544;48.836;9.174;2022-07-21T00:03:46;20.00;99.90
48752;DHT22;34544;48.836;9.174;2022-07-21T00:06:11;20.00;99.90
48752;DHT22;34544;48.836;9.174;2022-07-21T00:08:37;20.00;99.90
48752;DHT22;34544;48.836;9.174;2022-07-21T00:11:03;20.00;99.90
48752;DHT22;34544;48.836;9.174;2022-07-21T00:13:29;19.90;99.90
48752;DHT22;34544;48.836;9.174;2022-07-21T00:15:54;20.00;99.90
48752;DHT22;34544;48.836;9.174;2022-07-21T00:18:20;19.90;99.90
48752;DHT22;34544;48.836;9.174;2022-07-21T00:20:46;19.90;99.90
48752;DHT22;34544;48.836;9.174;2022-07-21T00:23:12;19.90;99.90
48752;DHT22;34544;48.836;9.174;2022-07-21T00:25:38;19.90;99.90
48752;DHT22;34544;48.836;9.174;2022-07-21T00:28:04;19.80;99.90
48752;DHT22;34544;48.836;9.174;2022-07-21T00:30:30;19.90;99.90
48752;DHT22;34544;48.836;9.174;2022-07-21T00:32:56;19.80;99.90
48752;DHT22;34544;48.836;9.174;2022-07-21T00:35:21;19.90;99.90
48752;DHT22;34544;48.836;9.174;2022-07-21T00:37:47;19.90;99.90
48752;DHT22;34544;48.836;9.174;2022-07-21T00:40:14;19.90;99.90
48752;DHT22;34544;48.836;9.174;2022-07-21T00:42:41;20.00;99.90
48752;DHT22;34544;48.836;9.174;2022-07-21T00:45:08;20.10;99.90
48752;DHT22;34544;48.836;9.174;2022-07-21T00:47:35;20.10;99.90
48752;DHT22;34544;48.836;9.174;2022-07-21T00:50:05;20.10;99.90
48752;DHT22;34544;48.836;9.174;2022-07-21T00:52:31;20.20;99.90
48752;DHT22;34544;48.836;9.174;2022-07-21T00:54:57;20.20;99.90
48752;DHT22;34544;48.836;9.174;2022-07-21T00:57:23;20.20;99.90
48752;DHT22;34544;48.836;9.174;2022-07-21T00:59:49;20.30;99.90
48752;DHT22;34544;48.836;9.174;2022-07-21T01:02:15;20.30;99.90
48752;DHT22;34544;48.836;9.174;2022-07-21T01:04:41;20.30;99.90
48752;DHT22;34544;48.836;9.174;2022-07-21T01:07:07;20.30;99.90
48752;DHT22;34544;48.836;9.174;2022-07-21T01:09:34;20.30;99.90
48752;DHT22;34544;48.836;9.174;2022-07-21T01:12:01;20.30;99.90
48752;DHT22;34544;48.836;9.174;2022-07-21T01:14:26;20.40;99.90
48752;DHT22;34544;48.836;9.174;2022-07-21T01:16:52;20.40;99.90
48752;DHT22;34544;48.836;9.174;2022-07-21T01:19:18;20.40;99.90
48752;DHT22;34544;48.836;9.174;2022-07-21T01:21:46;20.40;99.90
48752;DHT22;34544;48.836;9.174;2022-07-21T01:24:12;20.40;99.90
48752;DHT22;34544;48.836;9.174;2022-07-21T01:26:47;20.40;99.90
48752;DHT22;34544;48.836;9.174;2022-07-21T01:29:14;20.30;99.90
48752;DHT22;34544;48.836;9.174;2022-07-21T01:31:41;20.30;99.90
48752;DHT22;34544;48.836;9.174;2022-07-21T01:34:08;20.30;99.90
48752;DHT22;34544;48.836;9.174;2022-07-21T01:36:34;20.30;99.90
48752;DHT22;34544;48.836;9.174;2022-07-21T01:39:00;20.20;99.90
48752;DHT22;34544;48.836;9.174;2022-07-21T01:41:45;20.20;99.90
48752;DHT22;34544;48.836;9.174;2022-07-21T01:44:12;20.10;99.90
48752;DHT22;34544;48.836;9.174;2022-07-21T01:46:41;20.20;99.90
48752;DHT22;34544;48.836;9.174;2022-07-21T01:49:09;20.20;99.90
48752;DHT22;34544;48.836;9.174;2022-07-21T01:51:35;20.20;99.90
48752;DHT22;34544;48.836;9.174;2022-07-21T01:54:02;20.20;99.90
48752;DHT22;34544;48.836;9.174;2022-07-21T01:56:28;20.20;99.90
48752;DHT22;34544;48.836;9.174;2022-07-21T01:58:55;20.30;99.90
48752;DHT22;34544;48.836;9.174;2022-07-21T02:01:22;20.20;99.90
48752;DHT22;34544;48.836;9.174;2022-07-21T02:03:49;20.30;99.90
48752;DHT22;34544;48.836;9.174;2022-07-21T02:06:15;20.30;99.90
48752;DHT22;34544;48.836;9.174;2022-07-21T02:08:41;20.30;99.90
48752;DHT22;34544;48.836;9.174;2022-07-21T02:11:11;20.30;99.90
48752;DHT22;34544;48.836;9.174;2022-07-21T02:13:37;20.30;99.90
48752;DHT22;34544;48.836;9.174;2022-07-21T02:16:04;20.30;99.90
48752;DHT22;34544;48.836;9.174;2022-07-21T02:18:29;20.30;99.90
48752;DHT22;34544;48.836;9.174;2022-07-21T02:20:55;20.30;99.90
48752;DHT22;34544;48.836;9.174;2022-07-21T02:23:22;20.30;99.90
48752;DHT22;34544;48.836;9.174;2022-07-21T02:25:48;20.30;99.90
48752;DHT22;34544;48.836;9.174;2022-07-21T02:28:14;20.30;99.90
48752;DHT22;34544;48.836;9.174;2022-07-21T02:30:40;20.20;99.90
48752;DHT22;34544;48.836;9.174;2022-07-21T02:33:06;20.30;99.90
48752;DHT22;34544;48.836;9.174;2022-07-21T02:35:33;20.20;99.90
48752;DHT22;34544;48.836;9.174;2022-07-21T02:37:59;20.20;99.90
48752;DHT22;34544;48.836;9.174;2022-07-21T02:40:24;20.20;99.90
48752;DHT22;34544;48.836;9.174;2022-07-21T02:42:50;20.20;99.90
48752;DHT22;34544;48.836;9.174;2022-07-21T02:45:16;20.30;99.90
48752;DHT22;34544;48.836;9.174;2022-07-21T02:50:17;20.30;99.90
48752;DHT22;34544;48.836;9.174;2022-07-21T02:52:43;20.30;99.90
48752;DHT22;34544;48.836;9.174;2022-07-21T02:55:09;20.30;99.90
48752;DHT22;34544;48.836;9.174;2022-07-21T02:57:35;20.30;99.90
48752;DHT22;34544;48.836;9.174;2022-07-21T03:00:02;20.30;99.90
48752;DHT22;34544;48.836;9.174;2022-07-21T03:02:28;20.30;99.90
48752;DHT22;34544;48.836;9.174;2022-07-21T03:04:53;20.30;99.90
48752;DHT22;34544;48.836;9.174;2022-07-21T03:07:19;20.20;99.90
48752;DHT22;34544;48.836;9.174;2022-07-21T03:09:45;20.20;99.90
48752;DHT22;34544;48.836;9.174;2022-07-21T03:12:11;20.20;99.90
48752;DHT22;34544;48.836;9.174;2022-07-21T03:14:37;20.30;99.90
48752;DHT22;34544;48.836;9.174;2022-07-21T03:17:03;20.30;99.90
48752;DHT22;34544;48.836;9.174;2022-07-21T03:19:29;20.30;99.90
48752;DHT22;34544;48.836;9.174;2022-07-21T03:21:55;20.30;99.90
48752;DHT22;34544;48.836;9.174;2022-07-21T03:24:20;20.40;99.90
48752;DHT22;34544;48.836;9.174;2022-07-21T03:26:46;20.40;99.90
48752;DHT22;34544;48.836;9.174;2022-07-21T03:29:12;20.40;99.90
48752;DHT22;34544;48.836;9.174;2022-07-21T03:31:37;20.40;99.90
48752;DHT22;34544;48.836;9.174;2022-07-21T03:34:03;20.40;99.90
48752;DHT22;34544;48.836;9.174;2022-07-21T03:36:29;20.40;99.90
48752;DHT22;34544;48.836;9.174;2022-07-21T03:38:54;20.40;99.90
48752;DHT22;34544;48.836;9.174;2022-07-21T03:41:20;20.40;99.90
48752;DHT22;34544;48.836;9.174;2022-07-21T03:43:46;20.40;99.90
48752;DHT22;34544;48.836;9.174;2022-07-21T03:46:11;20.40;99.90
48752;DHT22;34544;48.836;9.174;2022-07-21T03:48:38;20.40;99.90
48752;DHT22;34544;48.836;9.174;2022-07-21T03:51:04;20.40;99.90
48752;DHT22;34544;48.836;9.174;2022-07-21T03:53:29;20.40;99.90
48752;DHT22;34544;48.836;9.174;2022-07-21T03:55:55;20.50;99.90
48752;DHT22;34544;48.836;9.174;2022-07-21T03:58:21;20.50;99.90
48752;DHT22;34544;48.836;9.174;2022-07-21T04:00:47;20.50;99.90
48752;DHT22;34544;48.836;9.174;2022-07-21T04:03:13;20.50;99.90
48752;DHT22;34544;48.836;9.174;2022-07-21T04:05:40;20.50;99.90
48752;DHT22;34544;48.836;9.174;2022-07-21T04:08:07;20.50;99.90
48752;DHT22;34544;48.836;9.174;2022-07-21T04:10:34;20.50;99.90
48752;DHT22;34544;48.836;9.174;2022-07-21T04:13:02;20.60;99.90
48752;DHT22;34544;48.836;9.174;2022-07-21T04:15:29;20.60;99.90
48752;DHT22;34544;48.836;9.174;2022-07-21T04:17:55;20.60;99.90
48752;DHT22;34544;48.836;9.174;2022-07-21T04:20:21;20.60;99.90
48752;DHT22;34544;48.836;9.174;2022-07-21T04:22:48;20.60;99.90
48752;DHT22;34544;48.836;9.174;2022-07-21T04:25:14;20.60;99.90
48752;DHT22;34544;48.836;9.174;2022-07-21T04:27:41;20.60;99.90
48752;DHT22;34544;48.836;9.174;2022-07-21T04:30:11;20.50;99.90
48752;DHT22;34544;48.836;9.174;2022-07-21T04:32:37;20.50;99.90
48752;DHT22;34544;48.836;9.174;2022-07-21T04:35:04;20.40;99.90
48752;DHT22;34544;48.836;9.174;2022-07-21T04:37:30;20.40;99.90
48752;DHT22;34544;48.836;9.174;2022-07-21T04:39:55;20.40;99.90
48752;DHT22;34544;48.836;9.174;2022-07-21T04:42:21;20.30;99.90
48752;DHT22;34544;48.836;9.174;2022-07-21T04:44:46;20.30;99.90
48752;DHT22;34544;48.836;9.174;2022-07-21T04:47:12;20.30;99.90
48752;DHT22;34544;48.836;9.174;2022-07-21T04:49:38;20.30;99.90
48752;DHT22;34544;48.836;9.174;2022-07-21T04:52:04;20.20;99.90
48752;DHT22;34544;48.836;9.174;2022-07-21T04:54:30;20.20;99.90
48752;DHT22;34544;48.836;9.174;2022-07-21T04:56:55;20.20;99.90
48752;DHT22;34544;48.836;9.174;2022-07-21T04:59:21;20.20;99.90
48752;DHT22;34544;48.836;9.174;2022-07-21T05:01:47;20.20;99.90
48752;DHT22;34544;48.836;9.174;2022-07-21T05:04:12;20.20;99.90
48752;DHT22;34544;48.836;9.174;2022-07-21T05:06:38;20.20;99.90
48752;DHT22;34544;48.836;9.174;2022-07-21T05:09:04;20.30;99.90
48752;DHT22;34544;48.836;9.174;2022-07-21T05:11:29;20.30;99.90
48752;DHT22;34544;48.836;9.174;2022-07-21T05:13:56;20.30;99.90
48752;DHT22;34544;48.836;9.174;2022-07-21T05:16:22;20.40;99.90
48752;DHT22;34544;48.836;9.174;2022-07-21T05:18:48;20.40;99.90
48752;DHT22;34544;48.836;9.174;2022-07-21T05:21:14;20.40;99.90
48752;DHT22;34544;48.836;9.174;2022-07-21T05:23:39;20.50;99.90
48752;DHT22;34544;48.836;9.174;2022-07-21T05:26:05;20.50;99.90
48752;DHT22;34544;48.836;9.174;2022-07-21T05:28:31;20.60;99.90
48752;DHT22;34544;48.836;9.174;2022-07-21T05:30:57;20.60;99.90
48752;DHT22;34544;48.836;9.174;2022-07-21T05:33:23;20.70;99.90
48752;DHT22;34544;48.836;9.174;2022-07-21T05:35:48;20.80;99.90
48752;DHT22;34544;48.836;9.174;2022-07-21T05:38:14;20.90;99.90
48752;DHT22;34544;48.836;9.174;2022-07-21T05:40:40;21.00;99.90
48752;DHT22;34544;48.836;9.174;2022-07-21T05:43:06;21.10;99.90
48752;DHT22;34544;48.836;9.174;2022-07-21T05:45:31;21.20;99.90
48752;DHT22;34544;48.836;9.174;2022-07-21T05:47:57;21.30;99.90
48752;DHT22;34544;48.836;9.174;2022-07-21T05:50:23;21.40;99.90
48752;DHT22;34544;48.836;9.174;2022-07-21T05:52:49;21.40;99.90
48752;DHT22;34544;48.836;9.174;2022-07-21T05:55:15;21.50;99.90
48752;DHT22;34544;48.836;9.174;2022-07-21T05:57:40;21.50;99.90
48752;DHT22;34544;48.836;9.174;2022-07-21T06:00:07;21.60;99.90
48752;DHT22;34544;48.836;9.174;2022-07-21T06:02:33;21.60;99.90
48752;DHT22;34544;48.836;9.174;2022-07-21T06:04:59;21.60;99.90
48752;DHT22;34544;48.836;9.174;2022-07-21T06:07:26;21.50;99.90
48752;DHT22;34544;48.836;9.174;2022-07-21T06:09:52;21.60;99.90
48752;DHT22;34544;48.836;9.174;2022-07-21T06:12:18;21.60;99.90
48752;DHT22;34544;48.836;9.174;2022-07-21T06:14:44;21.50;99.90
48752;DHT22;34544;48.836;9.174;2022-07-21T06:17:09;21.50;99.90
48752;DHT22;34544;48.836;9.174;2022-07-21T06:19:35;21.50;99.90
48752;DHT22;34544;48.836;9.174;2022-07-21T06:22:01;21.60;99.90
48752;DHT22;34544;48.836;9.174;2022-07-21T06:24:28;21.60;99.90
48752;DHT22;34544;48.836;9.174;2022-07-21T06:26:54;21.60;99.90
48752;DHT22;34544;48.836;9.174;2022-07-21T06:29:24;21.70;99.90
48752;DHT22;34544;48.836;9.174;2022-07-21T06:31:50;21.80;99.90
48752;DHT22;34544;48.836;9.174;2022-07-21T06:34:16;21.90;99.90
48752;DHT22;34544;48.836;9.174;2022-07-21T06:36:42;22.00;99.90
48752;DHT22;34544;48.836;9.174;2022-07-21T06:39:08;22.10;99.90
48752;DHT22;34544;48.836;9.174;2022-07-21T06:41:33;22.30;99.90
48752;DHT22;34544;48.836;9.174;2022-07-21T06:43:59;22.20;99.90
48752;DHT22;34544;48.836;9.174;2022-07-21T06:46:27;22.10;99.90
48752;DHT22;34544;48.836;9.174;2022-07-21T06:48:53;22.10;99.90
48752;DHT22;34544;48.836;9.174;2022-07-21T06:51:18;22.00;99.90
48752;DHT22;34544;48.836;9.174;2022-07-21T06:53:44;22.10;99.90
48752;DHT22;34544;48.836;9.174;2022-07-21T06:56:10;22.10;99.90
48752;DHT22;34544;48.836;9.174;2022-07-21T06:58:36;22.20;99.90
48752;DHT22;34544;48.836;9.174;2022-07-21T07:01:01;22.20;99.90
48752;DHT22;34544;48.836;9.174;2022-07-21T07:03:27;22.20;99.90
48752;DHT22;34544;48.836;9.174;2022-07-21T07:05:53;22.40;99.90
48752;DHT22;34544;48.836;9.174;2022-07-21T07:08:19;22.60;99.90
48752;DHT22;34544;48.836;9.174;2022-07-21T07:10:45;22.80;99.90
48752;DHT22;34544;48.836;9.174;2022-07-21T07:13:14;23.20;99.90
48752;DHT22;34544;48.836;9.174;2022-07-21T07:15:40;23.50;99.90
48752;DHT22;34544;48.836;9.174;2022-07-21T07:18:06;23.70;99.90
48752;DHT22;34544;48.836;9.174;2022-07-21T07:20:32;23.80;99.90
48752;DHT22;34544;48.836;9.174;2022-07-21T07:22:58;24.00;99.90
48752;DHT22;34544;48.836;9.174;2022-07-21T07:25:24;24.10;99.90
48752;DHT22;34544;48.836;9.174;2022-07-21T07:27:50;24.30;99.90
48752;DHT22;34544;48.836;9.174;2022-07-21T07:30:17;24.50;99.90
48752;DHT22;34544;48.836;9.174;2022-07-21T07:32:44;24.70;99.90
48752;DHT22;34544;48.836;9.174;2022-07-21T07:35:11;24.90;99.90
48752;DHT22;34544;48.836;9.174;2022-07-21T07:37:39;25.30;99.90
48752;DHT22;34544;48.836;9.174;2022-07-21T07:40:07;25.50;99.90
48752;DHT22;34544;48.836;9.174;2022-07-21T07:42:34;25.70;99.90
48752;DHT22;34544;48.836;9.174;2022-07-21T07:45:01;25.60;99.90
48752;DHT22;34544;48.836;9.174;2022-07-21T07:47:26;25.50;99.90
48752;DHT22;34544;48.836;9.174;2022-07-21T07:49:53;25.60;99.90
48752;DHT22;34544;48.836;9.174;2022-07-21T07:52:22;25.60;99.90
48752;DHT22;34544;48.836;9.174;2022-07-21T07:54:48;25.50;99.90
48752;DHT22;34544;48.836;9.174;2022-07-21T07:57:14;25.40;99.90
48752;DHT22;34544;48.836;9.174;2022-07-21T07:59:39;25.40;99.90
48752;DHT22;34544;48.836;9.174;2022-07-21T08:02:05;25.70;99.90
48752;DHT22;34544;48.836;9.174;2022-07-21T08:04:31;26.00;99.90
48752;DHT22;34544;48.836;9.174;2022-07-21T08:06:57;26.30;99.90
48752;DHT22;34544;48.836;9.174;2022-07-21T08:09:23;26.40;99.90
48752;DHT22;34544;48.836;9.174;2022-07-21T08:11:48;26.30;99.90
48752;DHT22;34544;48.836;9.174;2022-07-21T08:14:15;26.20;99.90
48752;DHT22;34544;48.836;9.174;2022-07-21T08:16:41;26.10;99.90
48752;DHT22;34544;48.836;9.174;2022-07-21T08:19:07;25.90;99.90
48752;DHT22;34544;48.836;9.174;2022-07-21T08:21:32;25.80;99.90
48752;DHT22;34544;48.836;9.174;2022-07-21T08:24:00;25.80;99.90
48752;DHT22;34544;48.836;9.174;2022-07-21T08:26:26;25.80;99.90
48752;DHT22;34544;48.836;9.174;2022-07-21T08:28:53;26.10;99.90
48752;DHT22;34544;48.836;9.174;2022-07-21T08:31:19;26.30;99.90
48752;DHT22;34544;48.836;9.174;2022-07-21T08:33:45;26.50;99.90
48752;DHT22;34544;48.836;9.174;2022-07-21T08:36:11;26.50;99.90
48752;DHT22;34544;48.836;9.174;2022-07-21T08:38:37;26.10;99.90
48752;DHT22;34544;48.836;9.174;2022-07-21T08:41:03;25.90;99.90
48752;DHT22;34544;48.836;9.174;2022-07-21T08:43:30;25.50;99.90
48752;DHT22;34544;48.836;9.174;2022-07-21T08:45:56;25.60;99.90
48752;DHT22;34544;48.836;9.174;2022-07-21T08:48:26;26.00;99.90
48752;DHT22;34544;48.836;9.174;2022-07-21T08:50:52;26.40;99.90
48752;DHT22;34544;48.836;9.174;2022-07-21T08:53:18;26.80;99.90
48752;DHT22;34544;48.836;9.174;2022-07-21T08:55:44;27.10;99.90
48752;DHT22;34544;48.836;9.174;2022-07-21T08:58:11;27.30;99.90
48752;DHT22;34544;48.836;9.174;2022-07-21T09:00:39;27.20;99.90
48752;DHT22;34544;48.836;9.174;2022-07-21T09:03:24;27.30;99.90
48752;DHT22;34544;48.836;9.174;2022-07-21T09:08:32;27.40;99.30
48752;DHT22;34544;48.836;9.174;2022-07-21T09:11:28;27.60;99.80
48752;DHT22;34544;48.836;9.174;2022-07-21T09:14:17;27.80;98.40
48752;DHT22;34544;48.836;9.174;2022-07-21T09:16:53;28.00;98.90
48752;DHT22;34544;48.836;9.174;2022-07-21T09:19:26;28.40;98.90
48752;DHT22;34544;48.836;9.174;2022-07-21T09:21:54;28.50;97.80
48752;DHT22;34544;48.836;9.174;2022-07-21T09:24:26;28.50;97.60
48752;DHT22;34544;48.836;9.174;2022-07-21T09:27:15;28.40;97.40
48752;DHT22;34544;48.836;9.174;2022-07-21T09:29:48;28.50;99.60
48752;DHT22;34544;48.836;9.174;2022-07-21T09:32:25;28.60;97.50
48752;DHT22;34544;48.836;9.174;2022-07-21T09:37:32;28.70;97.90
48752;DHT22;34544;48.836;9.174;2022-07-21T09:40:02;29.10;95.90
48752;DHT22;34544;48.836;9.174;2022-07-21T09:42:36;29.20;96.00
48752;DHT22;34544;48.836;9.174;2022-07-21T09:45:08;29.60;95.80
48752;DHT22;34544;48.836;9.174;2022-07-21T09:47:34;30.00;96.00
48752;DHT22;34544;48.836;9.174;2022-07-21T09:50:01;30.30;93.30
48752;DHT22;34544;48.836;9.174;2022-07-21T09:52:38;30.40;91.30
48752;DHT22;34544;48.836;9.174;2022-07-21T09:55:08;30.50;91.80
48752;DHT22;34544;48.836;9.174;2022-07-21T09:57:34;30.70;92.60
48752;DHT22;34544;48.836;9.174;2022-07-21T10:00:01;30.80;91.20
48752;DHT22;34544;48.836;9.174;2022-07-21T10:02:31;30.70;90.90
48752;DHT22;34544;48.836;9.174;2022-07-21T10:07:31;31.10;91.10
48752;DHT22;34544;48.836;9.174;2022-07-21T10:09:57;31.10;91.80
48752;DHT22;34544;48.836;9.174;2022-07-21T10:12:25;30.70;92.80
48752;DHT22;34544;48.836;9.174;2022-07-21T10:14:51;30.10;93.70
48752;DHT22;34544;48.836;9.174;2022-07-21T10:17:18;29.70;93.70
48752;DHT22;34544;48.836;9.174;2022-07-21T10:25:21;29.60;95.10
48752;DHT22;34544;48.836;9.174;2022-07-21T10:30:46;30.40;91.80
48752;DHT22;34544;48.836;9.174;2022-07-21T10:33:15;30.60;92.20
48752;DHT22;34544;48.836;9.174;2022-07-21T10:35:49;31.10;92.90
48752;DHT22;34544;48.836;9.174;2022-07-21T10:38:32;31.80;92.70
48752;DHT22;34544;48.836;9.174;2022-07-21T10:41:00;32.40;90.60
48752;DHT22;34544;48.836;9.174;2022-07-21T10:45:53;33.30;87.80
48752;DHT22;34544;48.836;9.174;2022-07-21T10:51:06;33.90;87.50
48752;DHT22;34544;48.836;9.174;2022-07-21T10:53:32;34.40;86.60
48752;DHT22;34544;48.836;9.174;2022-07-21T10:55:58;34.60;85.50
48752;DHT22;34544;48.836;9.174;2022-07-21T10:58:25;34.50;84.90
48752;DHT22;34544;48.836;9.174;2022-07-21T11:01:00;33.40;81.50
48752;DHT22;34544;48.836;9.174;2022-07-21T11:06:15;33.10;83.10
48752;DHT22;34544;48.836;9.174;2022-07-21T11:08:50;33.50;83.80
48752;DHT22;34544;48.836;9.174;2022-07-21T11:11:22;33.90;83.50
48752;DHT22;34544;48.836;9.174;2022-07-21T11:21:58;34.60;78.90
48752;DHT22;34544;48.836;9.174;2022-07-21T11:24:26;34.20;76.10
48752;DHT22;34544;48.836;9.174;2022-07-21T11:29:30;32.60;78.80
48752;DHT22;34544;48.836;9.174;2022-07-21T11:31:57;32.00;83.00
48752;DHT22;34544;48.836;9.174;2022-07-21T11:34:24;31.60;84.50
48752;DHT22;34544;48.836;9.174;2022-07-21T11:37:01;31.40;85.30
48752;DHT22;34544;48.836;9.174;2022-07-21T11:39:27;31.60;83.70
48752;DHT22;34544;48.836;9.174;2022-07-21T11:41:52;32.00;85.40
48752;DHT22;34544;48.836;9.174;2022-07-21T11:44:26;32.80;82.40
48752;DHT22;34544;48.836;9.174;2022-07-21T11:46:57;33.50;80.20
48752;DHT22;34544;48.836;9.174;2022-07-21T11:49:23;34.00;78.90
48752;DHT22;34544;48.836;9.174;2022-07-21T11:51:54;34.40;81.40
48752;DHT22;34544;48.836;9.174;2022-07-21T11:54:23;34.70;75.60
48752;DHT22;34544;48.836;9.174;2022-07-21T11:56:50;35.20;77.00
48752;DHT22;34544;48.836;9.174;2022-07-21T11:59:16;35.10;78.00
48752;DHT22;34544;48.836;9.174;2022-07-21T12:01:53;34.60;76.40
48752;DHT22;34544;48.836;9.174;2022-07-21T12:07:01;33.50;78.10
48752;DHT22;34544;48.836;9.174;2022-07-21T12:09:27;33.00;80.00
48752;DHT22;34544;48.836;9.174;2022-07-21T12:11:54;32.60;81.20
48752;DHT22;34544;48.836;9.174;2022-07-21T12:14:19;32.10;81.60
48752;DHT22;34544;48.836;9.174;2022-07-21T12:16:52;31.70;82.70
48752;DHT22;34544;48.836;9.174;2022-07-21T12:19:19;31.40;83.70
48752;DHT22;34544;48.836;9.174;2022-07-21T12:24:11;31.00;87.00
48752;DHT22;34544;48.836;9.174;2022-07-21T12:26:38;30.80;85.40
48752;DHT22;34544;48.836;9.174;2022-07-21T12:29:04;30.70;85.80
48752;DHT22;34544;48.836;9.174;2022-07-21T12:31:33;31.20;86.60
48752;DHT22;34544;48.836;9.174;2022-07-21T12:34:11;31.60;85.60
48752;DHT22;34544;48.836;9.174;2022-07-21T12:36:37;32.10;84.90
48752;DHT22;34544;48.836;9.174;2022-07-21T12:39:23;32.60;83.60
48752;DHT22;34544;48.836;9.174;2022-07-21T12:42:10;33.40;82.10
48752;DHT22;34544;48.836;9.174;2022-07-21T12:44:37;34.20;82.10
48752;DHT22;34544;48.836;9.174;2022-07-21T12:47:20;34.80;79.20
48752;DHT22;34544;48.836;9.174;2022-07-21T12:50:04;35.50;78.10
48752;DHT22;34544;48.836;9.174;2022-07-21T12:52:32;36.50;77.40
48752;DHT22;34544;48.836;9.174;2022-07-21T12:54:59;36.30;75.90
48752;DHT22;34544;48.836;9.174;2022-07-21T12:57:30;35.90;76.90
48752;DHT22;34544;48.836;9.174;2022-07-21T12:59:56;35.00;77.90
48752;DHT22;34544;48.836;9.174;2022-07-21T13:02:23;34.10;78.50
48752;DHT22;34544;48.836;9.174;2022-07-21T13:04:49;33.30;78.90
48752;DHT22;34544;48.836;9.174;2022-07-21T13:07:15;32.70;81.60
48752;DHT22;34544;48.836;9.174;2022-07-21T13:09:41;32.30;82.60
48752;DHT22;34544;48.836;9.174;2022-07-21T13:12:08;31.80;83.40
48752;DHT22;34544;48.836;9.174;2022-07-21T13:14:33;31.50;84.10
48752;DHT22;34544;48.836;9.174;2022-07-21T13:16:59;31.60;82.90
48752;DHT22;34544;48.836;9.174;2022-07-21T13:19:25;32.30;82.30
48752;DHT22;34544;48.836;9.174;2022-07-21T13:21:51;32.70;81.00
48752;DHT22;34544;48.836;9.174;2022-07-21T13:24:18;33.40;80.20
48752;DHT22;34544;48.836;9.174;2022-07-21T13:26:44;33.80;80.90
48752;DHT22;34544;48.836;9.174;2022-07-21T13:29:10;33.70;80.20
48752;DHT22;34544;48.836;9.174;2022-07-21T13:31:36;33.30;80.20
48752;DHT22;34544;48.836;9.174;2022-07-21T13:34:03;32.80;79.90
48752;DHT22;34544;48.836;9.174;2022-07-21T13:36:32;32.80;80.10
48752;DHT22;34544;48.836;9.174;2022-07-21T13:38:58;33.20;79.40
48752;DHT22;34544;48.836;9.174;2022-07-21T13:41:24;33.60;79.10
48752;DHT22;34544;48.836;9.174;2022-07-21T13:43:51;34.10;78.60
48752;DHT22;34544;48.836;9.174;2022-07-21T13:46:16;34.20;77.60
48752;DHT22;34544;48.836;9.174;2022-07-21T13:48:43;33.90;77.20
48752;DHT22;34544;48.836;9.174;2022-07-21T13:51:11;34.40;76.70
48752;DHT22;34544;48.836;9.174;2022-07-21T13:53:39;34.30;74.90
48752;DHT22;34544;48.836;9.174;2022-07-21T13:56:05;34.40;75.10
48752;DHT22;34544;48.836;9.174;2022-07-21T13:58:31;34.00;74.70
48752;DHT22;34544;48.836;9.174;2022-07-21T14:00:58;34.20;73.80
48752;DHT22;34544;48.836;9.174;2022-07-21T14:03:24;34.70;75.70
48752;DHT22;34544;48.836;9.174;2022-07-21T14:05:49;35.40;73.70
48752;DHT22;34544;48.836;9.174;2022-07-21T14:08:15;35.90;72.70
48752;DHT22;34544;48.836;9.174;2022-07-21T14:10:41;36.50;71.90
48752;DHT22;34544;48.836;9.174;2022-07-21T14:13:07;37.00;72.30
48752;DHT22;34544;48.836;9.174;2022-07-21T14:15:32;37.50;71.40
48752;DHT22;34544;48.836;9.174;2022-07-21T14:17:58;38.00;69.60
48752;DHT22;34544;48.836;9.174;2022-07-21T14:20:24;37.70;69.50
48752;DHT22;34544;48.836;9.174;2022-07-21T14:22:50;37.30;68.00
48752;DHT22;34544;48.836;9.174;2022-07-21T14:25:16;36.60;69.00
48752;DHT22;34544;48.836;9.174;2022-07-21T14:27:46;35.80;69.80
48752;DHT22;34544;48.836;9.174;2022-07-21T14:30:12;35.10;71.00
48752;DHT22;34544;48.836;9.174;2022-07-21T14:32:38;34.40;71.50
48752;DHT22;34544;48.836;9.174;2022-07-21T14:35:05;33.80;72.00
48752;DHT22;34544;48.836;9.174;2022-07-21T14:37:31;33.40;74.00
48752;DHT22;34544;48.836;9.174;2022-07-21T14:39:57;33.00;75.30
48752;DHT22;34544;48.836;9.174;2022-07-21T14:42:23;32.40;75.80
48752;DHT22;34544;48.836;9.174;2022-07-21T14:44:49;32.10;76.50
48752;DHT22;34544;48.836;9.174;2022-07-21T14:47:15;31.90;77.50
48752;DHT22;34544;48.836;9.174;2022-07-21T14:49:40;31.90;77.50
48752;DHT22;34544;48.836;9.174;2022-07-21T14:52:07;31.90;77.10
48752;DHT22;34544;48.836;9.174;2022-07-21T14:54:33;31.90;77.70
48752;DHT22;34544;48.836;9.174;2022-07-21T14:57:03;31.90;78.10
48752;DHT22;34544;48.836;9.174;2022-07-21T14:59:30;32.30;77.30
48752;DHT22;34544;48.836;9.174;2022-07-21T15:01:56;32.80;75.50
48752;DHT22;34544;48.836;9.174;2022-07-21T15:04:22;33.20;75.70
48752;DHT22;34544;48.836;9.174;2022-07-21T15:06:48;33.80;74.80
48752;DHT22;34544;48.836;9.174;2022-07-21T15:09:14;34.40;74.00
48752;DHT22;34544;48.836;9.174;2022-07-21T15:11:40;35.00;73.20
48752;DHT22;34544;48.836;9.174;2022-07-21T15:14:06;35.70;72.40
48752;DHT22;34544;48.836;9.174;2022-07-21T15:16:32;36.30;70.90
48752;DHT22;34544;48.836;9.174;2022-07-21T15:18:58;36.70;69.20
48752;DHT22;34544;48.836;9.174;2022-07-21T15:21:23;37.10;70.00
48752;DHT22;34544;48.836;9.174;2022-07-21T15:23:49;37.20;69.40
48752;DHT22;34544;48.836;9.174;2022-07-21T15:26:15;37.60;69.50
48752;DHT22;34544;48.836;9.174;2022-07-21T15:28:41;37.50;69.40
48752;DHT22;34544;48.836;9.174;2022-07-21T15:31:07;36.80;69.20
48752;DHT22;34544;48.836;9.174;2022-07-21T15:33:33;36.20;69.70
48752;DHT22;34544;48.836;9.174;2022-07-21T15:35:59;35.70;69.50
48752;DHT22;34544;48.836;9.174;2022-07-21T15:38:25;35.40;70.40
48752;DHT22;34544;48.836;9.174;2022-07-21T15:40:51;35.10;70.50
48752;DHT22;34544;48.836;9.174;2022-07-21T15:43:18;35.10;70.20
48752;DHT22;34544;48.836;9.174;2022-07-21T15:45:45;35.20;71.00
48752;DHT22;34544;48.836;9.174;2022-07-21T15:48:11;35.60;70.40
48752;DHT22;34544;48.836;9.174;2022-07-21T15:50:37;35.80;69.20
48752;DHT22;34544;48.836;9.174;2022-07-21T15:53:04;35.80;69.80
48752;DHT22;34544;48.836;9.174;2022-07-21T15:55:30;35.60;68.40
48752;DHT22;34544;48.836;9.174;2022-07-21T15:57:56;35.70;70.90
48752;DHT22;34544;48.836;9.174;2022-07-21T16:00:24;35.50;69.60
48752;DHT22;34544;48.836;9.174;2022-07-21T16:02:50;34.90;69.00
48752;DHT22;34544;48.836;9.174;2022-07-21T16:05:19;34.40;69.70
48752;DHT22;34544;48.836;9.174;2022-07-21T16:07:47;34.00;70.90
48752;DHT22;34544;48.836;9.174;2022-07-21T16:10:14;33.50;72.30
48752;DHT22;34544;48.836;9.174;2022-07-21T16:12:40;33.30;72.10